createdAt,value
2022-10-23T00:00:28.264Z,85.72
2022-10-23T00:02:31.438Z,86.19
2022-10-23T00:04:34.486Z,86.30
2022-10-23T00:06:37.789Z,86.17
2022-10-23T00:08:40.935Z,86.12
2022-10-23T00:10:44.610Z,86.31
2022-10-23T00:12:49.393Z,86.22
2022-10-23T00:14:52.456Z,86.51
2022-10-23T00:16:55.535Z,86.23
2022-10-23T00:18:58.583Z,86.52
2022-10-23T00:21:01.731Z,86.71
2022-10-23T00:23:04.947Z,86.48
2022-10-23T00:25:08.895Z,86.67
2022-10-23T00:27:11.964Z,86.98
2022-10-23T00:29:16.398Z,88.51
2022-10-23T00:31:19.838Z,87.90
2022-10-23T00:33:22.834Z,86.60
2022-10-23T00:35:25.883Z,85.24
2022-10-23T00:37:29.042Z,84.06
2022-10-23T00:39:32.091Z,83.17
2022-10-23T00:41:35.381Z,83.17
2022-10-23T00:43:53.603Z,83.81
2022-10-23T00:45:58.217Z,84.77
2022-10-23T00:48:01.810Z,84.69
2022-10-23T00:50:24.419Z,85.72
2022-10-23T00:52:30.754Z,85.73
2022-10-23T00:54:38.078Z,85.96
2022-10-23T00:56:44.821Z,85.48
2022-10-23T00:58:48.210Z,86.20
2022-10-23T01:00:53.516Z,85.89
2022-10-23T01:02:58.372Z,86.29
2022-10-23T01:05:01.831Z,86.58
2022-10-23T01:07:12.419Z,86.93
2022-10-23T01:09:23.721Z,86.49
2022-10-23T01:11:35.471Z,86.79
2022-10-23T01:13:45.824Z,86.58
2022-10-23T01:15:54.556Z,86.67
2022-10-23T01:18:05.410Z,86.89
2022-10-23T01:20:20.598Z,86.24
2022-10-23T01:22:48.067Z,86.68
2022-10-23T01:24:59.332Z,86.38
2022-10-23T01:27:16.359Z,86.35
2022-10-23T01:29:25.654Z,86.80
2022-10-23T01:31:35.939Z,86.48
2022-10-23T01:33:43.956Z,86.94
2022-10-23T01:35:50.413Z,86.97
2022-10-23T01:37:57.223Z,87.60
2022-10-23T01:40:06.737Z,87.65
2022-10-23T01:42:17.335Z,88.10
2022-10-23T01:44:24.834Z,88.17
2022-10-23T01:46:29.128Z,88.88
2022-10-23T01:48:35.698Z,89.40
2022-10-23T01:50:41.301Z,89.63
2022-10-23T01:52:45.675Z,89.59
2022-10-23T01:54:54.117Z,89.93
2022-10-23T01:56:59.412Z,90.22
2022-10-23T01:59:11.560Z,90.66
2022-10-23T02:01:19.434Z,90.61
2022-10-23T02:03:30.727Z,91.44
2022-10-23T02:05:34.503Z,91.17
2022-10-23T02:07:39.877Z,91.62
2022-10-23T02:09:43.579Z,91.00
2022-10-23T02:11:54.870Z,91.68
2022-10-23T02:14:04.773Z,91.64
2022-10-23T02:16:16.341Z,91.15
2022-10-23T02:18:32.666Z,90.89
2022-10-23T02:20:41.455Z,90.73
2022-10-23T02:22:52.912Z,90.78
2022-10-23T02:25:04.141Z,90.70
2022-10-23T02:27:13.344Z,90.99
2022-10-23T02:29:21.965Z,90.47
2022-10-23T02:31:26.978Z,90.92
2022-10-23T02:33:31.859Z,90.93
2022-10-23T02:35:35.333Z,91.04
2022-10-23T02:37:54.265Z,91.96
2022-10-23T02:40:01.384Z,91.89
2022-10-23T02:42:20.359Z,91.66
2022-10-23T02:44:37.379Z,91.93
2022-10-23T02:46:53.060Z,92.28
2022-10-23T02:49:08.655Z,92.27
2022-10-23T02:51:19.853Z,92.35
2022-10-23T02:53:31.605Z,91.90
2022-10-23T02:55:44.505Z,91.81
2022-10-23T02:57:54.955Z,92.06
2022-10-23T03:00:04.452Z,92.24
2022-10-23T03:02:18.001Z,91.71
2022-10-23T03:04:24.977Z,91.69
2022-10-23T03:06:28.734Z,91.65
2022-10-23T03:08:43.137Z,91.34
2022-10-23T03:10:46.518Z,91.74
2022-10-23T03:12:51.267Z,92.06
2022-10-23T03:14:55.133Z,92.15
2022-10-23T03:17:00.558Z,92.19
2022-10-23T03:19:05.571Z,92.39
2022-10-23T03:21:09.318Z,92.19
2022-10-23T03:23:14.303Z,92.58
2022-10-23T03:25:17.799Z,92.57
2022-10-23T03:27:22.708Z,92.86
2022-10-23T03:29:26.168Z,92.39
2022-10-23T03:31:29.594Z,92.68
2022-10-23T03:33:35.415Z,93.04
2022-10-23T03:37:51.844Z,92.47
2022-10-23T03:39:55.236Z,92.20
2022-10-23T03:41:58.894Z,91.76
2022-10-23T03:44:02.277Z,91.75
2022-10-23T03:46:09.160Z,91.63
2022-10-23T03:48:12.696Z,91.92
2022-10-23T03:50:16.200Z,92.49
2022-10-23T03:52:21.069Z,92.83
2022-10-23T03:54:29.716Z,92.47
2022-10-23T03:56:33.020Z,93.00
2022-10-23T03:58:36.486Z,93.07
2022-10-23T04:00:39.845Z,93.27
2022-10-23T04:02:44.843Z,93.53
2022-10-23T04:04:48.939Z,93.95
2022-10-23T04:06:52.586Z,94.29
2022-10-23T04:08:58.799Z,94.32
2022-10-23T04:11:02.254Z,94.86
2022-10-23T04:13:21.429Z,94.90
2022-10-23T04:15:24.795Z,94.52
2022-10-23T04:19:31.463Z,94.26
2022-10-23T04:21:35.110Z,94.17
2022-10-23T04:23:38.403Z,94.30
2022-10-23T04:28:00.030Z,94.39
2022-10-23T04:30:04.165Z,94.68
2022-10-23T04:32:08.394Z,94.65
2022-10-23T04:34:11.717Z,94.47
2022-10-23T04:36:15.150Z,94.40
2022-10-23T04:38:18.476Z,94.46
2022-10-23T04:40:21.959Z,94.46
2022-10-23T04:42:28.556Z,94.84
2022-10-23T04:44:34.258Z,94.53
2022-10-23T04:46:38.821Z,94.63
2022-10-23T04:48:42.425Z,94.72
2022-10-23T04:51:07.502Z,94.97
2022-10-23T04:53:29.944Z,94.77
2022-10-23T04:55:51.806Z,94.83
2022-10-23T04:58:19.473Z,95.24
2022-10-23T05:00:22.982Z,95.07
2022-10-23T05:02:30.105Z,95.36
2022-10-23T05:04:33.539Z,95.18
2022-10-23T05:07:03.169Z,95.33
2022-10-23T05:09:36.050Z,95.35
2022-10-23T05:11:51.609Z,95.83
2022-10-23T05:13:56.275Z,96.00
2022-10-23T05:15:59.758Z,96.09
2022-10-23T05:18:13.637Z,96.15
2022-10-23T05:20:20.823Z,96.35
2022-10-23T05:22:28.816Z,96.57
2022-10-23T05:24:32.148Z,97.00
2022-10-23T05:26:42.154Z,96.65
2022-10-23T05:28:47.113Z,96.29
2022-10-23T05:30:54.784Z,96.78
2022-10-23T05:33:03.843Z,96.48
2022-10-23T05:35:17.325Z,96.40
2022-10-23T05:37:23.971Z,96.68
2022-10-23T05:39:33.542Z,96.41
2022-10-23T05:41:38.439Z,96.81
2022-10-23T05:43:41.786Z,96.70
2022-10-23T05:46:15.403Z,96.45
2022-10-23T05:48:33.892Z,96.35
2022-10-23T05:50:56.671Z,96.27
2022-10-23T05:53:11.258Z,96.43
2022-10-23T05:55:26.863Z,96.28
2022-10-23T05:57:32.876Z,96.28
2022-10-23T05:59:39.805Z,95.53
2022-10-23T06:01:59.491Z,95.78
2022-10-23T06:04:23.103Z,95.45
2022-10-23T06:06:46.612Z,95.47
2022-10-23T06:08:50.322Z,95.17
2022-10-23T06:10:57.584Z,95.33
2022-10-23T06:13:00.907Z,95.26
2022-10-23T06:15:06.254Z,95.10
2022-10-23T06:17:33.683Z,95.01
2022-10-23T06:19:37.031Z,95.00
2022-10-23T06:21:41.213Z,95.12
2022-10-23T06:23:47.806Z,94.99
2022-10-23T06:26:07.058Z,95.15
2022-10-23T06:28:20.673Z,95.04
2022-10-23T06:30:25.337Z,94.96
2022-10-23T06:32:33.837Z,94.84
2022-10-23T06:34:55.379Z,94.81
2022-10-23T06:36:58.747Z,94.72
2022-10-23T06:39:37.179Z,94.44
2022-10-23T06:41:49.292Z,94.38
2022-10-23T06:44:12.459Z,94.30
2022-10-23T06:46:20.363Z,94.05
2022-10-23T06:48:44.504Z,93.82
2022-10-23T06:50:55.781Z,93.90
2022-10-23T06:53:09.997Z,93.95
2022-10-23T06:55:17.161Z,93.84
2022-10-23T06:57:20.559Z,93.60
2022-10-23T06:59:26.448Z,93.69
2022-10-23T07:01:30.579Z,93.67
2022-10-23T07:03:34.742Z,93.93
2022-10-23T07:05:44.734Z,93.51
2022-10-23T07:07:49.467Z,93.02
2022-10-23T07:09:59.467Z,93.62
2022-10-23T07:12:14.589Z,93.63
2022-10-23T07:14:23.901Z,93.28
2022-10-23T07:16:27.510Z,93.32
2022-10-23T07:18:31.800Z,93.13
2022-10-23T07:20:59.927Z,92.89
2022-10-23T07:23:04.745Z,92.95
2022-10-23T07:25:13.183Z,92.73
2022-10-23T07:27:17.421Z,92.79
2022-10-23T07:29:21.563Z,92.51
2022-10-23T07:31:28.194Z,92.65
2022-10-23T07:33:50.810Z,92.55
2022-10-23T07:35:55.857Z,92.19
2022-10-23T07:38:05.198Z,92.22
2022-10-23T07:40:13.576Z,91.93
2022-10-23T07:42:20.682Z,91.70
2022-10-23T07:44:27.655Z,91.92
2022-10-23T07:46:32.065Z,91.34
2022-10-23T07:48:35.562Z,91.29
2022-10-23T07:50:39.559Z,91.13
2022-10-23T07:52:43.223Z,90.60
2022-10-23T07:54:53.395Z,89.97
2022-10-23T07:56:57.542Z,89.78
2022-10-23T07:59:12.584Z,89.61
2022-10-23T08:01:20.199Z,88.71
2022-10-23T08:03:24.105Z,88.40
2022-10-23T08:05:27.479Z,88.13
2022-10-23T08:07:35.696Z,87.60
2022-10-23T08:09:39.085Z,87.17
2022-10-23T08:11:44.120Z,86.75
2022-10-23T08:13:51.609Z,86.38
2022-10-23T08:15:55.947Z,86.13
2022-10-23T08:18:19.453Z,84.37
2022-10-23T08:20:22.933Z,84.73
2022-10-23T08:22:26.402Z,84.01
2022-10-23T08:24:29.831Z,83.90
2022-10-23T08:26:33.567Z,83.42
2022-10-23T08:28:38.631Z,82.70
2022-10-23T08:30:42.105Z,81.92
2022-10-23T08:32:45.728Z,82.04
2022-10-23T08:34:50.195Z,81.52
2022-10-23T08:36:54.086Z,81.21
2022-10-23T08:38:58.959Z,81.24
2022-10-23T08:41:03.741Z,81.57
2022-10-23T08:43:35.426Z,81.55
2022-10-23T08:45:59.555Z,80.96
2022-10-23T08:48:27.119Z,80.48
2022-10-23T08:51:01.621Z,80.19
2022-10-23T08:53:12.647Z,80.21
2022-10-23T08:55:18.994Z,80.51
2022-10-23T08:57:26.700Z,80.34
2022-10-23T08:59:37.974Z,80.15
2022-10-23T09:01:46.966Z,79.79
2022-10-23T09:03:50.450Z,79.74
2022-10-23T09:06:05.902Z,79.74
2022-10-23T09:08:23.799Z,79.58
2022-10-23T09:10:38.831Z,79.38
2022-10-23T09:12:43.316Z,79.17
2022-10-23T09:15:15.970Z,79.19
2022-10-23T09:17:28.341Z,78.14
2022-10-23T09:19:32.082Z,78.44
2022-10-23T09:21:37.347Z,77.66
2022-10-23T09:23:40.926Z,77.64
2022-10-23T09:25:45.730Z,77.20
2022-10-23T09:27:53.224Z,75.56
2022-10-23T09:29:59.408Z,75.45
2022-10-23T09:32:05.117Z,75.70
2022-10-23T09:34:21.767Z,76.34
2022-10-23T09:36:29.007Z,75.63
2022-10-23T09:38:35.377Z,76.38
2022-10-23T09:40:41.807Z,75.55
2022-10-23T09:42:53.708Z,75.51
2022-10-23T09:44:57.828Z,75.72
2022-10-23T09:47:11.984Z,75.56
2022-10-23T09:49:22.737Z,75.04
2022-10-23T09:51:26.161Z,74.98
2022-10-23T09:53:35.519Z,75.04
2022-10-23T09:55:39.197Z,74.85
2022-10-23T09:57:45.000Z,75.24
2022-10-23T09:59:53.882Z,75.44
2022-10-23T10:01:59.865Z,75.04
2022-10-23T10:04:37.314Z,75.28
2022-10-23T10:08:50.041Z,75.67
2022-10-23T10:10:56.641Z,75.10
2022-10-23T10:13:11.954Z,75.66
2022-10-23T10:15:27.826Z,75.64
2022-10-23T10:17:39.182Z,75.12
2022-10-23T10:20:05.278Z,75.30
2022-10-23T10:22:22.720Z,75.08
2022-10-23T10:24:33.381Z,74.50
2022-10-23T10:26:45.325Z,74.47
2022-10-23T10:29:01.000Z,74.01
2022-10-23T10:31:15.859Z,74.40
2022-10-23T10:33:26.539Z,74.80
2022-10-23T10:35:43.891Z,74.70
2022-10-23T10:38:02.908Z,74.55
2022-10-23T10:40:17.456Z,74.72
2022-10-23T10:42:38.686Z,74.95
2022-10-23T10:44:52.834Z,74.42
2022-10-23T10:47:00.383Z,74.39
2022-10-23T10:49:17.626Z,74.79
2022-10-23T10:51:54.539Z,74.09
2022-10-23T10:54:13.326Z,74.58
2022-10-23T10:56:19.785Z,74.21
2022-10-23T10:58:31.274Z,74.18
2022-10-23T11:00:35.375Z,74.30
2022-10-23T11:02:45.465Z,74.20
2022-10-23T11:04:53.789Z,73.81
2022-10-23T11:07:00.791Z,74.00
2022-10-23T11:09:20.619Z,73.56
2022-10-23T11:11:29.939Z,73.29
2022-10-23T11:13:36.984Z,72.96
2022-10-23T11:15:43.944Z,72.83
2022-10-23T11:17:51.866Z,73.16
2022-10-23T11:20:03.665Z,73.15
2022-10-23T11:22:13.328Z,73.44
2022-10-23T11:24:58.699Z,73.20
2022-10-23T11:27:31.010Z,73.19
2022-10-23T11:29:51.662Z,74.15
2022-10-23T11:32:08.325Z,74.69
2022-10-23T11:34:39.344Z,75.44
2022-10-23T11:36:47.804Z,76.37
2022-10-23T11:38:53.797Z,76.66
2022-10-23T11:41:00.883Z,77.12
2022-10-23T11:43:04.284Z,77.31
2022-10-23T11:45:29.724Z,77.09
2022-10-23T11:47:39.644Z,76.69
2022-10-23T11:49:43.772Z,77.27
2022-10-23T11:51:47.072Z,76.34
2022-10-23T11:53:51.999Z,75.85
2022-10-23T11:56:06.612Z,75.19
2022-10-23T11:58:31.454Z,74.22
2022-10-23T12:00:36.399Z,73.08
2022-10-23T12:02:43.373Z,72.14
2022-10-23T12:04:49.862Z,71.92
2022-10-23T12:06:56.742Z,71.39
2022-10-23T12:09:05.909Z,71.64
2022-10-23T12:11:27.765Z,71.81
2022-10-23T12:13:45.403Z,71.16
2022-10-23T12:15:57.134Z,70.91
2022-10-23T12:18:15.507Z,70.98
2022-10-23T12:20:37.830Z,70.20
2022-10-23T12:22:48.373Z,71.39
2022-10-23T12:25:04.322Z,70.55
2022-10-23T12:27:17.660Z,71.05
2022-10-23T12:29:35.904Z,71.59
2022-10-23T12:31:52.365Z,71.45
2022-10-23T12:34:06.469Z,71.60
2022-10-23T12:36:23.779Z,72.04
2022-10-23T12:38:33.870Z,71.41
2022-10-23T12:40:41.047Z,71.05
2022-10-23T12:42:52.228Z,71.36
2022-10-23T12:45:00.157Z,71.25
2022-10-23T12:47:05.058Z,71.75
2022-10-23T12:49:15.722Z,71.46
2022-10-23T12:51:24.513Z,71.98
2022-10-23T12:53:27.819Z,71.79
2022-10-23T12:55:46.596Z,71.94
2022-10-23T12:57:51.938Z,72.26
2022-10-23T12:59:58.908Z,71.91
2022-10-23T13:02:02.421Z,72.16
2022-10-23T13:04:13.525Z,72.12
2022-10-23T13:06:17.268Z,72.14
2022-10-23T13:08:22.705Z,72.25
2022-10-23T13:10:46.668Z,72.48
2022-10-23T13:12:59.290Z,72.77
2022-10-23T13:15:14.950Z,72.64
2022-10-23T13:17:18.254Z,72.54
2022-10-23T13:19:26.935Z,72.86
2022-10-23T13:21:32.423Z,72.83
2022-10-23T13:23:37.066Z,73.09
2022-10-23T13:25:41.241Z,73.33
2022-10-23T13:27:44.968Z,73.39
2022-10-23T13:29:49.816Z,73.49
2022-10-23T13:31:53.413Z,73.34
2022-10-23T13:34:23.297Z,73.54
2022-10-23T13:36:30.113Z,73.06
2022-10-23T13:38:39.533Z,73.00
2022-10-23T13:40:44.457Z,73.18
2022-10-23T13:42:49.668Z,73.09
2022-10-23T13:44:54.361Z,73.06
2022-10-23T13:46:57.701Z,73.54
2022-10-23T13:49:01.144Z,73.51
2022-10-23T13:51:13.610Z,73.73
2022-10-23T13:53:17.303Z,73.97
2022-10-23T13:55:24.106Z,73.52
2022-10-23T13:57:27.478Z,73.56
2022-10-23T13:59:30.822Z,73.79
2022-10-23T14:01:36.363Z,73.65
2022-10-23T14:03:39.729Z,73.97
2022-10-23T14:05:43.045Z,73.92
2022-10-23T14:07:46.914Z,74.13
2022-10-23T14:09:50.700Z,74.25
2022-10-23T14:11:54.120Z,74.24
2022-10-23T14:13:57.503Z,74.06
2022-10-23T14:16:00.989Z,74.30
2022-10-23T14:18:08.257Z,74.45
2022-10-23T14:20:12.850Z,74.63
2022-10-23T14:22:16.177Z,74.49
2022-10-23T14:24:19.549Z,74.55
2022-10-23T14:26:27.508Z,74.38
2022-10-23T14:28:30.900Z,74.38
2022-10-23T14:30:34.270Z,74.49
2022-10-23T14:32:37.592Z,74.49
2022-10-23T14:34:45.799Z,74.56
2022-10-23T14:36:50.328Z,74.57
2022-10-23T14:39:00.487Z,74.64
2022-10-23T14:41:10.170Z,74.47
2022-10-23T14:43:13.482Z,74.50
2022-10-23T14:45:17.069Z,74.81
2022-10-23T14:47:20.709Z,75.04
2022-10-23T14:49:24.176Z,75.28
2022-10-23T14:51:30.862Z,75.35
2022-10-23T14:53:34.212Z,75.37
2022-10-23T14:55:37.573Z,75.74
2022-10-23T14:57:41.069Z,75.73
2022-10-23T14:59:45.057Z,76.04
2022-10-23T15:01:48.808Z,76.19
2022-10-23T15:03:55.790Z,76.18
2022-10-23T15:05:59.117Z,76.16
2022-10-23T15:08:03.755Z,76.76
2022-10-23T15:10:09.083Z,76.62
2022-10-23T15:12:12.622Z,76.28
2022-10-23T15:14:15.949Z,76.50
2022-10-23T15:16:19.404Z,76.54
2022-10-23T15:18:22.720Z,76.58
2022-10-23T15:20:26.106Z,76.70
2022-10-23T15:22:29.497Z,76.72
2022-10-23T15:24:34.201Z,76.58
2022-10-23T15:26:38.388Z,77.09
2022-10-23T15:28:41.702Z,78.18
2022-10-23T15:30:45.602Z,79.00
2022-10-23T15:32:48.975Z,79.54
2022-10-23T15:34:53.712Z,79.98
2022-10-23T15:36:58.598Z,80.89
2022-10-23T15:39:02.603Z,81.10
2022-10-23T15:41:16.609Z,81.47
2022-10-23T15:43:19.982Z,81.50
2022-10-23T15:45:25.567Z,81.63
2022-10-23T15:47:31.479Z,82.40
2022-10-23T15:49:35.001Z,82.32
2022-10-23T15:51:39.251Z,82.49
2022-10-23T15:53:42.526Z,82.85
2022-10-23T15:55:46.044Z,83.22
2022-10-23T15:57:50.941Z,83.18
2022-10-23T15:59:54.309Z,82.52
2022-10-23T16:01:58.740Z,82.87
2022-10-23T16:04:02.100Z,82.84
2022-10-23T16:06:06.309Z,82.71
2022-10-23T16:08:09.770Z,83.05
2022-10-23T16:10:13.096Z,83.06
2022-10-23T16:12:17.127Z,82.82
2022-10-23T16:14:21.788Z,82.99
2022-10-23T16:16:25.892Z,83.36
2022-10-23T16:18:29.839Z,83.19
2022-10-23T16:20:33.127Z,83.51
2022-10-23T16:22:39.028Z,83.61
2022-10-23T16:24:43.718Z,84.07
2022-10-23T16:26:51.731Z,84.15
2022-10-23T16:28:55.938Z,84.33
2022-10-23T16:31:00.911Z,84.88
2022-10-23T16:33:04.438Z,85.13
2022-10-23T16:35:11.009Z,84.79
2022-10-23T16:37:28.211Z,85.73
2022-10-23T16:39:37.631Z,85.99
2022-10-23T16:42:10.146Z,86.31
2022-10-23T16:44:34.973Z,87.19
2022-10-23T16:46:42.733Z,87.32
2022-10-23T16:48:46.354Z,87.40
2022-10-23T16:50:49.664Z,88.21
2022-10-23T16:52:55.514Z,88.68
2022-10-23T16:54:59.433Z,89.59
2022-10-23T16:57:02.875Z,90.80
2022-10-23T16:59:06.507Z,91.29
2022-10-23T17:01:13.622Z,91.16
2022-10-23T17:03:18.524Z,91.59
2022-10-23T17:05:21.838Z,92.39
2022-10-23T17:07:25.173Z,93.68
2022-10-23T17:09:31.169Z,95.29
2022-10-23T17:11:36.872Z,95.87
2022-10-23T17:13:43.581Z,96.56
2022-10-23T17:15:46.904Z,97.24
2022-10-23T17:17:50.412Z,96.71
2022-10-23T17:19:55.166Z,97.07
2022-10-23T17:22:00.856Z,97.70
2022-10-23T17:24:05.115Z,97.90
2022-10-23T17:26:09.692Z,98.35
2022-10-23T17:28:13.026Z,98.28
2022-10-23T17:30:16.355Z,98.40
2022-10-23T17:34:24.885Z,98.76
2022-10-23T17:36:31.401Z,99.08
2022-10-23T17:38:36.886Z,99.17
2022-10-23T17:40:40.824Z,99.45
2022-10-23T17:42:44.376Z,99.04
2022-10-23T17:44:48.075Z,99.66
2022-10-23T17:46:53.767Z,99.61
2022-10-23T17:48:59.277Z,99.77
2022-10-23T17:51:04.314Z,100.00
2022-10-23T17:53:09.098Z,100.00
2022-10-23T17:55:12.530Z,100.00
2022-10-23T17:57:15.846Z,100.00
2022-10-23T17:59:19.963Z,100.00
2022-10-23T18:01:26.319Z,100.00
2022-10-23T18:03:29.898Z,100.00
2022-10-23T18:05:33.850Z,100.00
2022-10-23T18:07:37.206Z,100.00
2022-10-23T18:09:41.945Z,100.00
2022-10-23T18:11:48.454Z,100.00
2022-10-23T18:13:53.033Z,100.00
2022-10-23T18:15:56.378Z,100.00
2022-10-23T18:17:59.705Z,100.00
2022-10-23T18:20:03.094Z,100.00
2022-10-23T18:22:06.693Z,100.00
2022-10-23T18:24:10.790Z,100.00
2022-10-23T18:26:17.742Z,100.00
2022-10-23T18:28:21.116Z,99.88
2022-10-23T18:30:24.394Z,99.66
2022-10-23T18:32:27.866Z,99.76
2022-10-23T18:34:31.194Z,99.51
2022-10-23T18:36:36.762Z,99.16
2022-10-23T18:38:40.103Z,99.30
2022-10-23T18:40:44.902Z,99.17
2022-10-23T18:42:50.252Z,99.40
2022-10-23T18:44:53.697Z,99.24
2022-10-23T18:46:57.521Z,99.18
2022-10-23T18:49:00.926Z,98.90
2022-10-23T18:51:04.478Z,99.15
2022-10-23T18:53:08.038Z,99.15
2022-10-23T18:55:12.853Z,98.85
2022-10-23T18:57:16.215Z,99.13
2022-10-23T18:59:22.255Z,98.88
2022-10-23T19:01:27.470Z,98.98
2022-10-23T19:03:33.026Z,99.19
2022-10-23T19:05:36.359Z,99.18
2022-10-23T19:07:44.870Z,99.42
2022-10-23T19:09:48.674Z,98.52
2022-10-23T19:11:52.055Z,98.20
2022-10-23T19:13:55.423Z,97.62
2022-10-23T19:16:00.369Z,97.66
2022-10-23T19:18:06.654Z,97.34
2022-10-23T19:20:14.820Z,97.39
2022-10-23T19:22:18.828Z,97.22
2022-10-23T19:24:28.670Z,97.51
2022-10-23T19:26:35.459Z,97.82
2022-10-23T19:28:40.620Z,97.67
2022-10-23T19:30:44.151Z,98.10
2022-10-23T19:32:49.507Z,98.28
2022-10-23T19:34:52.861Z,98.09
2022-10-23T19:36:56.336Z,98.28
2022-10-23T19:38:59.739Z,98.63
2022-10-23T19:41:03.812Z,98.54
2022-10-23T19:43:07.166Z,98.32
2022-10-23T19:45:12.696Z,98.43
2022-10-23T19:47:16.109Z,98.56
2022-10-23T19:49:23.749Z,98.53
2022-10-23T19:51:29.571Z,98.62
2022-10-23T19:53:33.683Z,98.76
2022-10-23T19:55:37.322Z,98.74
2022-10-23T19:57:40.808Z,98.96
2022-10-23T19:59:44.405Z,99.26
2022-10-23T20:01:49.408Z,99.19
2022-10-23T20:03:55.350Z,99.15
2022-10-23T20:06:00.090Z,99.39
2022-10-23T20:08:03.423Z,99.44
2022-10-23T20:10:08.314Z,99.59
2022-10-23T20:12:11.683Z,99.65
2022-10-23T20:14:14.992Z,99.45
2022-10-23T20:16:19.771Z,99.84
2022-10-23T20:18:25.971Z,99.31
2022-10-23T20:20:29.244Z,99.59
2022-10-23T20:22:33.911Z,99.81
2022-10-23T20:24:37.380Z,99.93
2022-10-23T20:26:41.742Z,100.00
2022-10-23T20:28:47.025Z,100.00
2022-10-23T20:30:50.417Z,100.00
2022-10-23T20:32:53.739Z,100.00
2022-10-23T20:34:57.075Z,99.85
2022-10-23T20:37:00.627Z,99.87
2022-10-23T20:39:07.084Z,99.71
2022-10-23T20:41:10.408Z,99.87
2022-10-23T20:43:13.856Z,100.00
2022-10-23T20:45:17.212Z,99.86
2022-10-23T20:47:21.084Z,99.53
2022-10-23T20:49:25.028Z,99.20
2022-10-23T20:51:28.527Z,98.83
2022-10-23T20:53:31.862Z,98.59
2022-10-23T20:55:41.067Z,98.47
2022-10-23T20:57:44.673Z,97.85
2022-10-23T20:59:48.288Z,97.64
2022-10-23T21:01:53.880Z,97.41
2022-10-23T21:03:58.855Z,97.33
2022-10-23T21:06:06.418Z,97.03
2022-10-23T21:08:09.804Z,96.80
2022-10-23T21:10:13.107Z,96.64
2022-10-23T21:12:17.885Z,96.25
2022-10-23T21:14:21.218Z,96.27
2022-10-23T21:16:28.542Z,96.12
2022-10-23T21:18:45.620Z,96.56
2022-10-23T21:20:50.235Z,95.70
2022-10-23T21:22:55.394Z,95.04
2022-10-23T21:25:00.525Z,94.71
2022-10-23T21:27:03.838Z,94.54
2022-10-23T21:29:21.112Z,94.03
2022-10-23T21:31:25.431Z,93.94
2022-10-23T21:33:29.634Z,93.71
2022-10-23T21:35:33.116Z,93.61
2022-10-23T21:37:36.537Z,93.58
2022-10-23T21:39:39.956Z,93.74
2022-10-23T21:41:43.280Z,93.82
2022-10-23T21:43:47.286Z,93.65
2022-10-23T21:45:54.348Z,93.78
2022-10-23T21:47:58.880Z,93.75
2022-10-23T21:50:02.181Z,93.42
2022-10-23T21:52:05.530Z,93.59
2022-10-23T21:54:12.728Z,93.50
2022-10-23T21:56:26.428Z,93.32
2022-10-23T21:58:29.916Z,93.36
2022-10-23T22:00:33.211Z,93.57
2022-10-23T22:02:38.006Z,93.65
2022-10-23T22:04:41.705Z,93.85
2022-10-23T22:06:45.917Z,93.73
2022-10-23T22:08:49.358Z,93.58
2022-10-23T22:10:52.673Z,93.93
2022-10-23T22:12:56.045Z,93.76
2022-10-23T22:14:59.801Z,93.90
2022-10-23T22:17:03.863Z,93.33
2022-10-23T22:19:11.538Z,93.32
2022-10-23T22:21:18.873Z,93.02
2022-10-23T22:23:22.258Z,92.88
2022-10-23T22:25:25.589Z,92.61
2022-10-23T22:27:29.316Z,92.79
2022-10-23T22:29:33.151Z,92.98
2022-10-23T22:31:37.452Z,92.85
2022-10-23T22:33:40.826Z,92.74
2022-10-23T22:35:45.460Z,92.61
2022-10-23T22:37:48.805Z,92.53
2022-10-23T22:39:52.833Z,92.36
2022-10-23T22:41:56.131Z,92.59
2022-10-23T22:44:00.433Z,91.92
2022-10-23T22:46:05.408Z,91.70
2022-10-23T22:48:09.198Z,91.65
2022-10-23T22:50:12.578Z,91.91
2022-10-23T22:52:17.181Z,91.85
2022-10-23T22:54:20.490Z,91.86
2022-10-23T22:56:25.983Z,91.97
2022-10-23T22:58:29.295Z,92.02
2022-10-23T23:00:32.739Z,92.09
2022-10-23T23:02:36.046Z,92.34
2022-10-23T23:04:39.681Z,92.30
2022-10-23T23:06:43.096Z,92.14
2022-10-23T23:08:48.782Z,92.21
2022-10-23T23:10:56.190Z,92.54
2022-10-23T23:12:59.560Z,92.26
2022-10-23T23:15:02.828Z,92.41
2022-10-23T23:17:07.539Z,92.51
2022-10-23T23:19:12.283Z,92.46
2022-10-23T23:21:16.414Z,92.47
2022-10-23T23:23:20.120Z,92.58
2022-10-23T23:25:24.730Z,92.38
2022-10-23T23:27:28.132Z,92.69
2022-10-23T23:29:31.469Z,92.53
2022-10-23T23:31:34.767Z,92.45
2022-10-23T23:33:38.205Z,92.57
2022-10-23T23:35:42.143Z,92.26
2022-10-23T23:37:45.874Z,92.09
2022-10-23T23:39:49.167Z,91.36
2022-10-23T23:41:53.971Z,90.98
2022-10-23T23:43:59.484Z,91.04
2022-10-23T23:46:02.920Z,91.17
2022-10-23T23:48:07.878Z,91.08
2022-10-23T23:50:12.532Z,91.09
2022-10-23T23:52:15.800Z,91.35
2022-10-23T23:54:19.226Z,91.37
2022-10-23T23:56:22.851Z,91.18
2022-10-23T23:58:27.495Z,91.32
